createdAt,value
2022-11-12T00:01:23.147Z,3.17
2022-11-12T00:03:44.002Z,3.00
2022-11-12T00:06:05.340Z,3.10
2022-11-12T00:08:26.477Z,2.97
2022-11-12T00:10:47.726Z,3.07
2022-11-12T00:13:08.875Z,2.80
2022-11-12T00:15:29.732Z,3.07
2022-11-12T00:17:50.635Z,2.50
2022-11-12T00:20:12.178Z,2.70
2022-11-12T00:22:33.013Z,2.70
2022-11-12T00:24:53.650Z,2.90
2022-11-12T00:27:14.661Z,2.70
2022-11-12T00:29:35.664Z,2.73
2022-11-12T00:31:56.142Z,2.80
2022-11-12T00:34:34.476Z,2.85
2022-11-12T00:36:55.273Z,2.97
2022-11-12T00:39:16.375Z,2.50
2022-11-12T00:41:37.013Z,2.47
2022-11-12T00:43:57.865Z,3.20
2022-11-12T00:46:18.769Z,2.80
2022-11-12T00:48:39.682Z,2.27
2022-11-12T00:51:02.355Z,2.58
2022-11-12T00:53:23.321Z,2.50
2022-11-12T00:55:44.343Z,2.72
2022-11-12T00:58:05.310Z,2.70
2022-11-12T01:00:26.607Z,2.88
2022-11-12T01:02:50.968Z,2.50
2022-11-12T01:05:12.154Z,2.17
2022-11-12T01:07:33.174Z,2.00
2022-11-12T01:09:59.819Z,2.40
2022-11-12T01:12:20.879Z,2.50
2022-11-12T01:14:42.028Z,2.73
2022-11-12T01:17:02.878Z,2.40
2022-11-12T01:19:23.633Z,2.67
2022-11-12T01:21:44.818Z,2.90
2022-11-12T01:24:06.218Z,2.40
2022-11-12T01:26:30.737Z,2.80
2022-11-12T01:28:51.911Z,2.95
2022-11-12T01:31:25.307Z,2.77
2022-11-12T01:33:47.927Z,2.87
2022-11-12T01:36:09.204Z,2.73
2022-11-12T01:38:33.329Z,2.77
2022-11-12T01:40:55.356Z,2.73
2022-11-12T01:43:15.923Z,3.20
2022-11-12T01:45:37.741Z,3.20
2022-11-12T01:47:58.909Z,3.40
2022-11-12T01:50:33.527Z,4.00
2022-11-12T01:52:59.604Z,3.83
2022-11-12T01:55:47.831Z,4.10
2022-11-12T01:58:10.544Z,3.97
2022-11-12T02:00:31.609Z,3.47
2022-11-12T02:02:57.875Z,3.67
2022-11-12T02:05:20.555Z,3.67
2022-11-12T02:07:43.955Z,3.93
2022-11-12T02:10:07.919Z,5.07
2022-11-12T02:12:48.618Z,4.57
2022-11-12T02:15:09.515Z,3.90
2022-11-12T02:17:30.416Z,4.95
2022-11-12T02:19:52.641Z,4.37
2022-11-12T02:22:13.481Z,4.03
2022-11-12T02:24:35.362Z,3.65
2022-11-12T02:26:56.267Z,4.03
2022-11-12T02:29:17.332Z,3.65
2022-11-12T02:31:38.180Z,3.67
2022-11-12T02:33:59.112Z,3.70
2022-11-12T02:36:20.347Z,4.28
2022-11-12T02:38:41.008Z,4.10
2022-11-12T02:41:01.889Z,4.10
2022-11-12T02:43:22.617Z,4.70
2022-11-12T02:45:43.168Z,4.60
2022-11-12T02:48:04.115Z,4.87
2022-11-12T02:50:24.987Z,5.28
2022-11-12T02:52:46.169Z,3.80
2022-11-12T02:55:08.719Z,4.37
2022-11-12T02:57:30.389Z,3.95
2022-11-12T02:59:51.156Z,3.80
2022-11-12T03:02:11.948Z,4.00
2022-11-12T03:04:32.715Z,3.17
2022-11-12T03:06:53.696Z,3.37
2022-11-12T03:09:14.664Z,3.60
2022-11-12T03:11:35.280Z,3.30
2022-11-12T03:13:56.100Z,4.10
2022-11-12T03:16:17.154Z,4.03
2022-11-12T03:18:38.369Z,3.60
2022-11-12T03:20:58.916Z,4.07
2022-11-12T03:23:20.440Z,4.63
2022-11-12T03:25:41.297Z,4.70
2022-11-12T03:28:05.157Z,4.50
2022-11-12T03:30:30.202Z,4.33
2022-11-12T03:32:50.779Z,4.40
2022-11-12T03:35:11.515Z,4.87
2022-11-12T03:37:32.477Z,5.40
2022-11-12T03:39:53.366Z,4.17
2022-11-12T03:42:14.223Z,4.17
2022-11-12T03:44:35.614Z,4.20
2022-11-12T03:46:56.662Z,5.27
2022-11-12T03:49:17.586Z,3.77
2022-11-12T03:51:38.119Z,4.07
2022-11-12T03:53:58.593Z,3.83
2022-11-12T03:56:19.454Z,4.77
2022-11-12T03:58:40.430Z,4.40
2022-11-12T04:01:01.408Z,4.50
2022-11-12T04:03:22.447Z,4.40
2022-11-12T04:06:01.952Z,3.63
2022-11-12T04:08:36.228Z,3.77
2022-11-12T04:10:57.337Z,4.60
2022-11-12T04:13:27.733Z,3.60
2022-11-12T04:16:08.318Z,3.40
2022-11-12T04:18:47.523Z,2.80
2022-11-12T04:21:27.671Z,3.40
2022-11-12T04:23:48.666Z,4.50
2022-11-12T04:26:24.518Z,4.57
2022-11-12T04:29:05.245Z,3.33
2022-11-12T04:31:26.196Z,3.53
2022-11-12T04:33:46.800Z,3.47
2022-11-12T04:36:07.736Z,3.50
2022-11-12T04:38:28.766Z,3.23
2022-11-12T04:41:08.478Z,3.75
2022-11-12T04:43:48.236Z,3.40
2022-11-12T04:46:09.930Z,3.78
2022-11-12T04:48:35.912Z,3.00
2022-11-12T04:51:02.520Z,3.20
2022-11-12T04:53:23.190Z,3.60
2022-11-12T04:55:43.990Z,3.70
2022-11-12T04:58:04.745Z,4.20
2022-11-12T05:00:26.133Z,3.10
2022-11-12T05:02:50.011Z,3.50
2022-11-12T05:05:10.843Z,3.63
2022-11-12T05:07:33.090Z,3.22
2022-11-12T05:09:53.879Z,3.03
2022-11-12T05:12:14.787Z,3.67
2022-11-12T05:14:35.740Z,3.67
2022-11-12T05:16:56.492Z,4.90
2022-11-12T05:19:18.185Z,4.70
2022-11-12T05:21:58.424Z,4.70
2022-11-12T05:24:40.553Z,4.60
2022-11-12T05:27:00.687Z,4.20
2022-11-12T05:29:21.794Z,5.30
2022-11-12T05:31:42.776Z,5.47
2022-11-12T05:34:03.435Z,5.17
2022-11-12T05:36:24.455Z,6.20
2022-11-12T05:38:45.419Z,6.17
2022-11-12T05:41:06.320Z,5.13
2022-11-12T05:43:27.281Z,5.83
2022-11-12T05:45:48.083Z,5.20
2022-11-12T05:48:08.807Z,5.37
2022-11-12T05:50:34.998Z,4.83
2022-11-12T05:53:01.244Z,4.23
2022-11-12T05:55:21.915Z,4.67
2022-11-12T05:57:42.595Z,4.30
2022-11-12T06:00:04.096Z,3.80
2022-11-12T06:02:25.226Z,3.47
2022-11-12T06:04:48.169Z,3.23
2022-11-12T06:07:09.111Z,2.90
2022-11-12T06:09:30.000Z,3.47
2022-11-12T06:11:50.836Z,3.03
2022-11-12T06:14:11.937Z,2.57
2022-11-12T06:16:38.761Z,3.30
2022-11-12T06:18:59.735Z,2.67
2022-11-12T06:21:20.248Z,2.87
2022-11-12T06:23:40.929Z,2.80
2022-11-12T06:26:29.782Z,2.90
2022-11-12T06:28:53.024Z,2.83
2022-11-12T06:31:13.917Z,3.00
2022-11-12T06:33:34.958Z,2.47
2022-11-12T06:36:03.510Z,3.40
2022-11-12T06:38:25.093Z,3.73
2022-11-12T06:40:47.260Z,4.10
2022-11-12T06:43:08.131Z,4.50
2022-11-12T06:45:29.123Z,3.90
2022-11-12T06:47:49.731Z,4.20
2022-11-12T06:50:10.816Z,3.40
2022-11-12T06:52:32.734Z,4.30
2022-11-12T06:54:53.628Z,3.40
2022-11-12T06:57:14.448Z,4.20
2022-11-12T06:59:35.573Z,5.70
2022-11-12T07:01:56.163Z,6.30
2022-11-12T07:04:17.058Z,7.28
2022-11-12T07:06:38.323Z,6.00
2022-11-12T07:08:59.511Z,6.10
2022-11-12T07:11:20.462Z,6.13
2022-11-12T07:13:48.050Z,4.70
2022-11-12T07:16:10.846Z,5.80
2022-11-12T07:18:32.314Z,6.00
2022-11-12T07:20:58.524Z,5.00
2022-11-12T07:23:19.390Z,4.00
2022-11-12T07:25:40.393Z,4.10
2022-11-12T07:28:01.217Z,4.13
2022-11-12T07:30:22.262Z,3.73
2022-11-12T07:32:47.139Z,3.30
2022-11-12T07:35:10.988Z,3.73
2022-11-12T07:37:33.785Z,6.67
2022-11-12T07:39:54.544Z,5.47
2022-11-12T07:42:15.457Z,6.90
2022-11-12T07:44:38.097Z,7.30
2022-11-12T07:46:59.969Z,8.17
2022-11-12T07:49:20.969Z,7.47
2022-11-12T07:51:41.917Z,8.70
2022-11-12T07:54:02.687Z,10.80
2022-11-12T07:56:26.132Z,11.10
2022-11-12T07:58:50.508Z,10.27
2022-11-12T08:01:34.493Z,9.00
2022-11-12T08:04:46.628Z,10.33
2022-11-12T08:07:07.425Z,10.43
2022-11-12T08:09:28.119Z,10.50
2022-11-12T08:11:49.109Z,11.57
2022-11-12T08:14:09.786Z,10.30
2022-11-12T08:16:30.284Z,12.40
2022-11-12T08:18:51.189Z,15.57
2022-11-12T08:21:14.182Z,17.53
2022-11-12T08:23:35.303Z,24.77
2022-11-12T08:26:04.826Z,25.23
2022-11-12T08:28:26.419Z,26.23
2022-11-12T08:30:47.493Z,32.23
2022-11-12T08:33:08.464Z,33.00
2022-11-12T08:35:31.264Z,31.47
2022-11-12T08:37:52.139Z,25.90
2022-11-12T08:40:13.167Z,27.80
2022-11-12T08:42:34.141Z,26.58
2022-11-12T08:44:55.036Z,22.80
2022-11-12T08:47:16.065Z,20.10
2022-11-12T08:49:46.795Z,20.03
2022-11-12T08:52:09.003Z,17.07
2022-11-12T08:54:30.440Z,15.53
2022-11-12T08:57:07.268Z,14.33
2022-11-12T08:59:28.135Z,14.30
2022-11-12T09:01:50.196Z,12.00
2022-11-12T09:04:11.101Z,12.93
2022-11-12T09:06:32.223Z,11.10
2022-11-12T09:08:53.364Z,11.03
2022-11-12T09:11:14.201Z,11.27
2022-11-12T09:13:35.070Z,10.57
2022-11-12T09:16:01.573Z,10.33
2022-11-12T09:18:22.162Z,9.60
2022-11-12T09:20:43.261Z,9.27
2022-11-12T09:23:12.043Z,13.37
2022-11-12T09:25:33.817Z,12.40
2022-11-12T09:27:55.073Z,15.03
2022-11-12T09:30:16.268Z,13.90
2022-11-12T09:32:37.333Z,11.47
2022-11-12T09:35:02.365Z,12.37
2022-11-12T09:37:23.153Z,11.13
2022-11-12T09:39:43.965Z,11.67
2022-11-12T09:42:11.754Z,11.27
2022-11-12T09:44:36.679Z,10.10
2022-11-12T09:47:04.744Z,8.70
2022-11-12T09:49:32.681Z,9.13
2022-11-12T09:51:55.383Z,10.20
2022-11-12T09:54:34.839Z,9.10
2022-11-12T09:56:55.788Z,9.30
2022-11-12T09:59:17.403Z,9.13
2022-11-12T10:01:44.213Z,10.47
2022-11-12T10:04:14.116Z,10.23
2022-11-12T10:06:45.823Z,9.47
2022-11-12T10:09:24.143Z,9.63
2022-11-12T10:12:31.776Z,9.10
2022-11-12T10:15:35.247Z,8.40
2022-11-12T10:18:02.082Z,7.90
2022-11-12T10:20:43.364Z,8.10
2022-11-12T10:23:15.563Z,7.00
2022-11-12T10:25:37.552Z,6.50
2022-11-12T10:27:58.123Z,6.57
2022-11-12T10:30:22.009Z,7.20
2022-11-12T10:32:45.178Z,6.97
2022-11-12T10:35:09.632Z,6.40
2022-11-12T10:37:41.492Z,5.47
2022-11-12T10:40:28.085Z,8.03
2022-11-12T10:42:57.705Z,9.37
2022-11-12T10:45:23.389Z,6.80
2022-11-12T10:47:47.022Z,7.63
2022-11-12T10:50:35.151Z,7.30
2022-11-12T10:53:31.720Z,6.80
2022-11-12T10:56:01.699Z,5.53
2022-11-12T10:58:22.409Z,5.20
2022-11-12T11:00:56.648Z,5.57
2022-11-12T11:03:57.055Z,5.10
2022-11-12T11:06:23.684Z,5.60
2022-11-12T11:09:08.729Z,6.60
2022-11-12T11:11:31.170Z,7.93
2022-11-12T11:13:57.467Z,8.20
2022-11-12T11:16:21.293Z,7.47
2022-11-12T11:18:48.011Z,8.20
2022-11-12T11:21:46.853Z,6.80
2022-11-12T11:24:14.014Z,8.63
2022-11-12T11:27:30.588Z,7.40
2022-11-12T11:30:15.527Z,6.63
2022-11-12T11:32:58.407Z,7.70
2022-11-12T11:35:36.877Z,7.70
2022-11-12T11:38:36.398Z,7.43
2022-11-12T11:41:15.462Z,6.43
2022-11-12T11:43:45.141Z,8.23
2022-11-12T11:46:26.418Z,10.43
2022-11-12T11:49:49.430Z,7.90
2022-11-12T11:52:47.862Z,8.32
2022-11-12T11:59:32.453Z,8.80
2022-11-12T12:02:23.944Z,8.30
2022-11-12T12:04:47.297Z,8.30
2022-11-12T12:08:11.657Z,7.20
2022-11-12T12:13:56.286Z,7.27
2022-11-12T12:16:25.924Z,8.40
2022-11-12T12:19:12.129Z,6.40
2022-11-12T12:21:36.357Z,6.90
2022-11-12T12:24:15.176Z,6.20
2022-11-12T12:26:54.008Z,5.80
2022-11-12T12:29:26.433Z,5.70
2022-11-12T12:32:11.755Z,4.83
2022-11-12T12:34:34.796Z,4.77
2022-11-12T12:37:04.276Z,5.93
2022-11-12T12:39:49.185Z,5.00
2022-11-12T12:42:18.437Z,4.40
2022-11-12T12:45:05.894Z,4.57
2022-11-12T12:47:30.821Z,6.30
2022-11-12T12:49:53.088Z,5.27
2022-11-12T12:52:15.351Z,4.80
2022-11-12T12:54:36.124Z,4.80
2022-11-12T12:56:57.077Z,3.87
2022-11-12T12:59:23.877Z,3.80
2022-11-12T13:01:44.697Z,3.47
2022-11-12T13:04:08.875Z,3.50
2022-11-12T13:06:53.860Z,3.30
2022-11-12T13:09:14.984Z,3.00
2022-11-12T13:12:00.239Z,3.17
2022-11-12T13:15:11.716Z,5.23
2022-11-12T13:17:50.072Z,5.50
2022-11-12T13:20:10.597Z,5.27
2022-11-12T13:22:49.820Z,4.10
2022-11-12T13:25:13.571Z,4.17
2022-11-12T13:27:40.890Z,5.13
2022-11-12T13:30:01.419Z,5.30
2022-11-12T13:32:32.339Z,4.20
2022-11-12T13:35:13.324Z,3.60
2022-11-12T13:37:34.273Z,3.30
2022-11-12T13:40:03.974Z,3.90
2022-11-12T13:42:43.349Z,4.20
2022-11-12T13:45:05.964Z,4.90
2022-11-12T13:47:29.480Z,7.40
2022-11-12T13:49:50.847Z,5.10
2022-11-12T13:52:15.470Z,5.80
2022-11-12T13:55:31.489Z,5.10
2022-11-12T13:57:56.860Z,4.73
2022-11-12T14:00:22.600Z,4.77
2022-11-12T14:02:46.245Z,4.50
2022-11-12T14:05:23.522Z,4.70
2022-11-12T14:08:00.530Z,6.57
2022-11-12T14:10:43.417Z,6.60
2022-11-12T14:13:15.267Z,5.57
2022-11-12T14:15:56.620Z,5.80
2022-11-12T14:19:03.262Z,6.53
2022-11-12T14:21:24.498Z,4.73
2022-11-12T14:23:47.863Z,6.33
2022-11-12T14:26:11.467Z,6.70
2022-11-12T14:28:37.124Z,5.60
2022-11-12T14:31:00.155Z,5.77
2022-11-12T14:33:23.265Z,6.97
2022-11-12T14:35:44.077Z,6.63
2022-11-12T14:38:05.346Z,6.87
2022-11-12T14:40:29.011Z,6.40
2022-11-12T14:42:50.475Z,6.40
2022-11-12T14:46:03.643Z,6.82
2022-11-12T14:48:24.626Z,6.90
2022-11-12T14:50:51.859Z,5.80
2022-11-12T14:53:25.212Z,5.67
2022-11-12T14:55:51.838Z,5.47
2022-11-12T14:58:17.875Z,5.20
2022-11-12T15:00:42.926Z,4.60
2022-11-12T15:03:04.920Z,4.30
2022-11-12T15:05:27.520Z,5.38
2022-11-12T15:08:01.399Z,4.77
2022-11-12T15:10:36.579Z,7.80
2022-11-12T15:13:08.479Z,8.50
2022-11-12T15:15:29.727Z,9.07
2022-11-12T15:18:01.097Z,7.33
2022-11-12T15:20:21.842Z,7.60
2022-11-12T15:22:53.257Z,8.27
2022-11-12T15:25:41.196Z,7.40
2022-11-12T15:28:25.152Z,8.45
2022-11-12T15:31:01.054Z,6.93
2022-11-12T15:33:22.938Z,7.50
2022-11-12T15:35:56.452Z,6.93
2022-11-12T15:38:31.723Z,6.85
2022-11-12T15:40:59.903Z,6.30
2022-11-12T15:43:24.476Z,6.20
2022-11-12T15:45:52.141Z,5.50
2022-11-12T15:48:12.906Z,5.50
2022-11-12T15:50:33.782Z,5.50
2022-11-12T15:52:54.653Z,4.60
2022-11-12T15:55:16.110Z,4.50
2022-11-12T15:57:44.146Z,4.30
2022-11-12T16:00:10.489Z,3.87
2022-11-12T16:02:31.977Z,5.20
2022-11-12T16:04:52.980Z,4.90
2022-11-12T16:07:13.793Z,5.77
2022-11-12T16:09:34.811Z,6.47
2022-11-12T16:11:57.480Z,7.97
2022-11-12T16:14:21.999Z,8.97
2022-11-12T16:16:45.974Z,9.80
2022-11-12T16:19:14.766Z,9.70
2022-11-12T16:21:35.418Z,14.80
2022-11-12T16:23:57.459Z,13.50
2022-11-12T16:26:25.098Z,12.70
2022-11-12T16:28:46.043Z,10.87
2022-11-12T16:31:07.064Z,12.00
2022-11-12T16:33:29.329Z,15.33
2022-11-12T16:35:50.543Z,14.60
2022-11-12T16:38:15.973Z,12.60
2022-11-12T16:40:36.879Z,12.52
2022-11-12T16:42:58.202Z,12.80
2022-11-12T16:45:20.939Z,15.50
2022-11-12T16:47:56.017Z,15.53
2022-11-12T16:50:19.010Z,18.77
2022-11-12T16:52:39.932Z,19.80
2022-11-12T16:55:04.586Z,20.50
2022-11-12T16:57:25.667Z,19.47
2022-11-12T16:59:46.416Z,22.00
2022-11-12T17:02:31.128Z,19.63
2022-11-12T17:04:51.883Z,20.17
2022-11-12T17:07:12.819Z,19.60
2022-11-12T17:09:33.949Z,16.93
2022-11-12T17:11:55.018Z,16.23
2022-11-12T17:14:21.185Z,15.47
2022-11-12T17:16:45.325Z,15.20
2022-11-12T17:19:14.398Z,13.10
2022-11-12T17:21:36.057Z,12.87
2022-11-12T17:23:58.018Z,12.57
2022-11-12T17:26:20.417Z,12.67
2022-11-12T17:28:41.355Z,11.53
2022-11-12T17:31:13.636Z,11.10
2022-11-12T17:33:48.667Z,10.40
2022-11-12T17:36:12.498Z,13.40
2022-11-12T17:39:27.270Z,12.90
2022-11-12T17:41:47.964Z,11.73
2022-11-12T17:44:08.452Z,11.97
2022-11-12T17:46:29.392Z,10.83
2022-11-12T17:48:50.414Z,11.37
2022-11-12T17:51:14.612Z,11.03
2022-11-12T17:53:42.954Z,10.80
2022-11-12T17:56:04.488Z,9.83
2022-11-12T17:58:25.921Z,9.50
2022-11-12T18:00:46.618Z,9.20
2022-11-12T18:03:07.395Z,9.03
2022-11-12T18:05:28.402Z,8.90
2022-11-12T18:07:48.997Z,7.80
2022-11-12T18:10:09.861Z,6.50
2022-11-12T18:12:30.442Z,6.33
2022-11-12T18:14:51.236Z,8.10
2022-11-12T18:17:14.527Z,5.90
2022-11-12T18:19:36.534Z,6.10
2022-11-12T18:21:57.469Z,5.47
2022-11-12T18:24:18.512Z,6.10
2022-11-12T18:26:39.641Z,6.20
2022-11-12T18:29:00.878Z,5.40
2022-11-12T18:31:23.158Z,5.27
2022-11-12T18:33:44.271Z,4.70
2022-11-12T18:36:11.649Z,5.10
2022-11-12T18:38:36.868Z,5.33
2022-11-12T18:41:17.486Z,5.97
2022-11-12T18:43:39.142Z,5.63
2022-11-12T18:46:00.479Z,5.97
2022-11-12T18:48:21.175Z,6.87
2022-11-12T18:50:42.999Z,6.90
2022-11-12T18:53:03.891Z,6.47
2022-11-12T18:55:24.903Z,6.80
2022-11-12T18:58:49.386Z,7.13
2022-11-12T19:01:20.634Z,7.50
2022-11-12T19:03:42.576Z,7.07
2022-11-12T19:07:09.629Z,7.50
2022-11-12T19:09:30.783Z,7.40
2022-11-12T19:11:51.775Z,7.50
2022-11-12T19:14:12.659Z,7.57
2022-11-12T19:16:39.675Z,6.80
2022-11-12T19:19:00.428Z,6.70
2022-11-12T19:21:23.824Z,6.53
2022-11-12T19:23:46.333Z,6.37
2022-11-12T19:26:13.742Z,6.40
2022-11-12T19:28:35.377Z,5.83
2022-11-12T19:30:56.612Z,8.93
2022-11-12T19:33:17.152Z,9.67
2022-11-12T19:35:41.198Z,13.70
2022-11-12T19:38:02.140Z,11.73
2022-11-12T19:40:23.024Z,14.00
2022-11-12T19:42:46.981Z,14.43
2022-11-12T19:45:08.269Z,13.05
2022-11-12T19:47:29.431Z,12.20
2022-11-12T19:49:55.521Z,12.27
2022-11-12T19:52:16.475Z,12.07
2022-11-12T19:54:37.496Z,13.80
2022-11-12T19:56:59.563Z,15.00
2022-11-12T19:59:20.446Z,12.33
2022-11-12T20:01:48.288Z,14.77
2022-11-12T20:04:12.603Z,15.37
2022-11-12T20:06:43.524Z,18.42
2022-11-12T20:09:05.633Z,21.73
2022-11-12T20:11:35.662Z,27.30
2022-11-12T20:13:57.868Z,27.23
2022-11-12T20:16:24.962Z,26.90
2022-11-12T20:18:50.793Z,23.80
2022-11-12T20:21:12.209Z,26.25
2022-11-12T20:23:34.289Z,27.87
2022-11-12T20:26:04.010Z,26.20
2022-11-12T20:28:24.897Z,28.83
2022-11-12T20:30:46.036Z,23.87
2022-11-12T20:33:06.994Z,24.50
2022-11-12T20:36:19.890Z,28.30
2022-11-12T20:38:43.355Z,24.30
2022-11-12T20:41:06.356Z,27.20
2022-11-12T20:43:29.237Z,25.27
2022-11-12T20:45:52.187Z,22.67
2022-11-12T20:48:12.679Z,22.37
2022-11-12T20:50:33.481Z,21.73
2022-11-12T20:52:54.554Z,19.90
2022-11-12T20:55:15.116Z,21.47
2022-11-12T20:57:35.823Z,19.37
2022-11-12T20:59:56.715Z,18.20
2022-11-12T21:02:18.231Z,18.50
2022-11-12T21:04:39.203Z,18.87
2022-11-12T21:07:05.020Z,18.40
2022-11-12T21:09:54.521Z,17.57
2022-11-12T21:12:15.751Z,16.57
2022-11-12T21:14:39.891Z,18.57
2022-11-12T21:17:10.314Z,16.73
2022-11-12T21:19:32.475Z,17.13
2022-11-12T21:21:53.512Z,19.23
2022-11-12T21:24:14.629Z,20.10
2022-11-12T21:26:44.426Z,21.90
2022-11-12T21:29:05.350Z,19.87
2022-11-12T21:31:28.355Z,27.45
2022-11-12T21:33:53.922Z,22.57
2022-11-12T21:36:16.525Z,23.90
2022-11-12T21:38:37.843Z,21.10
2022-11-12T21:41:07.252Z,19.85
2022-11-12T21:43:27.921Z,17.47
2022-11-12T21:45:48.895Z,17.30
2022-11-12T21:48:09.644Z,16.60
2022-11-12T21:50:30.586Z,15.40
2022-11-12T21:52:51.297Z,17.73
2022-11-12T21:55:12.262Z,16.10
2022-11-12T21:57:33.194Z,16.23
2022-11-12T22:00:00.205Z,15.80
2022-11-12T22:02:29.496Z,22.80
2022-11-12T22:04:50.258Z,20.83
2022-11-12T22:07:11.297Z,19.00
2022-11-12T22:09:33.453Z,17.33
2022-11-12T22:11:54.437Z,19.87
2022-11-12T22:14:17.511Z,23.05
2022-11-12T22:16:38.515Z,25.52
2022-11-12T22:19:00.298Z,24.23
2022-11-12T22:21:23.558Z,24.83
2022-11-12T22:23:44.852Z,22.57
2022-11-12T22:26:08.030Z,21.17
2022-11-12T22:28:29.496Z,17.53
2022-11-12T22:30:50.898Z,18.57
2022-11-12T22:33:11.892Z,18.30
2022-11-12T22:35:33.616Z,21.20
2022-11-12T22:37:54.794Z,20.20
2022-11-12T22:40:15.760Z,21.30
2022-11-12T22:42:44.594Z,20.27
2022-11-12T22:45:06.124Z,17.53
2022-11-12T22:47:27.228Z,18.77
2022-11-12T22:49:50.925Z,16.20
2022-11-12T22:52:11.902Z,19.60
2022-11-12T22:54:32.969Z,16.20
2022-11-12T22:56:53.869Z,15.43
2022-11-12T22:59:14.767Z,14.90
2022-11-12T23:01:36.276Z,16.17
2022-11-12T23:03:59.528Z,14.30
2022-11-12T23:06:20.343Z,16.10
2022-11-12T23:08:41.978Z,14.30
2022-11-12T23:11:05.497Z,11.53
2022-11-12T23:13:31.472Z,13.40
2022-11-12T23:15:52.164Z,15.75
2022-11-12T23:18:13.242Z,14.77
2022-11-12T23:20:33.687Z,14.20
2022-11-12T23:22:54.605Z,14.33
2022-11-12T23:25:15.319Z,12.77
2022-11-12T23:27:36.361Z,14.60
2022-11-12T23:29:57.293Z,15.00
2022-11-12T23:32:18.242Z,14.27
2022-11-12T23:34:39.328Z,14.07
2022-11-12T23:37:00.122Z,17.70
2022-11-12T23:39:21.044Z,16.03
2022-11-12T23:41:41.989Z,15.25
2022-11-12T23:44:02.995Z,14.97
2022-11-12T23:46:24.450Z,14.97
2022-11-12T23:48:45.912Z,12.57
2022-11-12T23:51:20.661Z,13.10
2022-11-12T23:53:42.134Z,16.23
2022-11-12T23:56:04.573Z,14.17
2022-11-12T23:58:25.977Z,13.90
